createdAt,value
2023-03-16T00:00:58.440Z,54.80
2023-03-16T00:03:28.171Z,54.80
2023-03-16T00:05:56.267Z,54.20
2023-03-16T00:08:24.335Z,54.10
2023-03-16T00:10:54.465Z,54.00
2023-03-16T00:13:24.666Z,54.00
2023-03-16T00:15:54.601Z,53.70
2023-03-16T00:18:26.308Z,53.40
2023-03-16T00:20:57.247Z,54.00
2023-03-16T00:23:29.842Z,52.80
2023-03-16T00:26:00.239Z,53.10
2023-03-16T00:28:30.681Z,53.10
2023-03-16T00:30:59.523Z,52.70
2023-03-16T00:33:27.689Z,52.80
2023-03-16T00:36:00.274Z,52.90
2023-03-16T00:38:29.859Z,52.50
2023-03-16T00:40:57.445Z,52.70
2023-03-16T00:43:26.696Z,52.80
2023-03-16T00:46:03.205Z,52.90
2023-03-16T00:48:30.747Z,52.50
2023-03-16T00:50:59.393Z,52.60
2023-03-16T00:53:27.789Z,52.30
2023-03-16T00:55:58.860Z,52.40
2023-03-16T00:58:26.306Z,52.30
2023-03-16T01:00:55.483Z,52.90
2023-03-16T01:03:23.382Z,52.60
2023-03-16T01:05:51.115Z,53.30
2023-03-16T01:08:18.606Z,53.40
2023-03-16T01:10:46.623Z,54.10
2023-03-16T01:13:14.747Z,54.70
2023-03-16T01:15:43.205Z,55.20
2023-03-16T01:18:11.206Z,54.60
2023-03-16T01:20:38.621Z,54.50
2023-03-16T01:23:06.954Z,54.50
2023-03-16T01:25:34.486Z,54.40
2023-03-16T01:28:02.881Z,55.40
2023-03-16T01:30:30.738Z,55.30
2023-03-16T01:32:58.919Z,54.90
2023-03-16T01:35:26.716Z,53.90
2023-03-16T01:37:54.908Z,54.30
2023-03-16T01:40:38.016Z,54.10
2023-03-16T01:43:07.797Z,53.80
2023-03-16T01:46:07.521Z,53.80
2023-03-16T01:48:58.696Z,53.60
2023-03-16T01:51:37.841Z,53.30
2023-03-16T01:54:30.826Z,53.00
2023-03-16T01:57:21.348Z,53.70
2023-03-16T01:59:55.996Z,53.40
2023-03-16T02:02:26.862Z,52.90
2023-03-16T02:05:16.790Z,53.60
2023-03-16T02:07:48.438Z,53.50
2023-03-16T02:10:19.601Z,52.50
2023-03-16T02:12:47.829Z,52.40
2023-03-16T02:15:16.929Z,52.30
2023-03-16T02:17:45.941Z,51.80
2023-03-16T02:20:36.272Z,51.90
2023-03-16T02:23:06.624Z,51.90
2023-03-16T02:25:54.636Z,52.00
2023-03-16T02:28:45.072Z,52.10
2023-03-16T02:31:13.191Z,52.00
2023-03-16T02:33:42.078Z,52.10
2023-03-16T02:36:10.534Z,52.10
2023-03-16T02:38:39.282Z,52.20
2023-03-16T02:41:11.313Z,52.70
2023-03-16T02:43:42.314Z,52.70
2023-03-16T02:46:12.320Z,52.50
2023-03-16T02:49:00.633Z,52.50
2023-03-16T02:51:28.414Z,52.90
2023-03-16T02:53:56.606Z,53.60
2023-03-16T02:56:24.742Z,53.70
2023-03-16T02:58:52.541Z,53.60
2023-03-16T03:01:20.969Z,53.90
2023-03-16T03:03:49.876Z,53.70
2023-03-16T03:06:17.440Z,53.30
2023-03-16T03:08:45.757Z,53.10
2023-03-16T03:14:00.037Z,53.70
2023-03-16T03:16:28.514Z,53.90
2023-03-16T03:18:56.780Z,54.10
2023-03-16T03:21:32.552Z,54.40
2023-03-16T03:24:02.306Z,54.60
2023-03-16T03:26:29.908Z,55.10
2023-03-16T03:28:59.588Z,55.10
2023-03-16T03:31:27.432Z,55.00
2023-03-16T03:33:54.836Z,55.00
2023-03-16T03:36:23.319Z,55.00
2023-03-16T03:38:51.255Z,55.20
2023-03-16T03:41:20.182Z,55.90
2023-03-16T03:43:48.516Z,55.50
2023-03-16T03:46:17.222Z,56.00
2023-03-16T03:48:44.864Z,56.20
2023-03-16T03:51:12.767Z,57.20
2023-03-16T03:54:07.887Z,56.60
2023-03-16T03:56:52.638Z,57.20
2023-03-16T03:59:20.364Z,57.70
2023-03-16T04:02:02.079Z,57.20
2023-03-16T04:04:32.973Z,57.70
2023-03-16T04:07:02.223Z,57.60
2023-03-16T04:09:32.284Z,57.50
2023-03-16T04:12:03.790Z,58.20
2023-03-16T04:14:31.845Z,57.80
2023-03-16T04:17:00.772Z,57.90
2023-03-16T04:19:28.766Z,57.70
2023-03-16T04:21:57.220Z,57.30
2023-03-16T04:24:24.847Z,57.00
2023-03-16T04:26:54.687Z,57.90
2023-03-16T04:29:23.134Z,58.20
2023-03-16T04:31:51.410Z,57.80
2023-03-16T04:34:19.285Z,58.80
2023-03-16T04:36:46.945Z,57.70
2023-03-16T04:39:14.801Z,57.50
2023-03-16T04:41:43.336Z,57.80
2023-03-16T04:44:13.760Z,58.30
2023-03-16T04:46:42.294Z,58.20
2023-03-16T04:49:11.268Z,58.50
2023-03-16T04:51:40.919Z,58.50
2023-03-16T04:54:10.121Z,58.60
2023-03-16T04:56:41.486Z,58.10
2023-03-16T04:59:11.336Z,58.10
2023-03-16T05:01:44.052Z,57.90
2023-03-16T05:04:18.944Z,58.20
2023-03-16T05:06:42.176Z,58.50
2023-03-16T05:09:09.992Z,58.40
2023-03-16T05:11:39.535Z,58.20
2023-03-16T05:14:09.010Z,58.30
2023-03-16T05:16:38.670Z,58.30
2023-03-16T05:19:06.170Z,57.90
2023-03-16T05:21:34.496Z,58.10
2023-03-16T05:24:06.233Z,58.00
2023-03-16T05:26:34.177Z,58.30
2023-03-16T05:29:06.055Z,58.60
2023-03-16T05:31:33.762Z,58.90
2023-03-16T05:34:03.228Z,59.20
2023-03-16T05:36:30.765Z,59.10
2023-03-16T05:39:00.733Z,59.10
2023-03-16T05:41:30.416Z,59.20
2023-03-16T05:43:59.860Z,59.90
2023-03-16T05:46:29.443Z,59.50
2023-03-16T05:48:57.723Z,59.50
2023-03-16T05:51:29.206Z,58.30
2023-03-16T05:53:57.673Z,59.70
2023-03-16T05:56:39.426Z,59.20
2023-03-16T05:59:13.133Z,59.70
2023-03-16T06:01:41.057Z,59.80
2023-03-16T06:04:12.282Z,59.50
2023-03-16T06:06:41.248Z,60.00
2023-03-16T06:09:13.655Z,60.60
2023-03-16T06:11:46.281Z,61.80
2023-03-16T06:14:33.410Z,61.30
2023-03-16T06:17:01.040Z,61.00
2023-03-16T06:19:29.139Z,61.30
2023-03-16T06:21:59.415Z,61.40
2023-03-16T06:24:28.279Z,60.80
2023-03-16T06:26:56.010Z,60.80
2023-03-16T06:29:29.350Z,61.10
2023-03-16T06:31:57.394Z,61.20
2023-03-16T06:34:25.621Z,62.00
2023-03-16T06:36:54.860Z,61.70
2023-03-16T06:39:22.806Z,61.40
2023-03-16T06:41:52.310Z,61.40
2023-03-16T06:44:22.580Z,62.40
2023-03-16T06:46:55.205Z,62.50
2023-03-16T06:49:26.030Z,63.10
2023-03-16T06:51:53.721Z,63.10
2023-03-16T06:54:22.434Z,62.60
2023-03-16T06:56:50.323Z,62.80
2023-03-16T06:59:18.080Z,63.40
2023-03-16T07:01:45.703Z,64.50
2023-03-16T07:04:13.540Z,64.50
2023-03-16T07:06:41.725Z,64.60
2023-03-16T07:09:12.768Z,64.60
2023-03-16T07:11:41.056Z,65.00
2023-03-16T07:14:08.634Z,65.30
2023-03-16T07:16:36.998Z,65.80
2023-03-16T07:19:06.332Z,66.20
2023-03-16T07:21:35.523Z,67.20
2023-03-16T07:24:03.278Z,67.90
2023-03-16T07:26:33.358Z,70.60
2023-03-16T07:29:00.984Z,70.40
2023-03-16T07:31:30.050Z,69.60
2023-03-16T07:33:59.337Z,69.50
2023-03-16T07:36:29.031Z,70.00
2023-03-16T07:38:59.042Z,70.60
2023-03-16T07:41:27.585Z,71.00
2023-03-16T07:43:59.511Z,70.70
2023-03-16T07:46:27.278Z,70.60
2023-03-16T07:48:54.911Z,71.40
2023-03-16T07:51:22.941Z,72.10
2023-03-16T07:53:50.750Z,72.90
2023-03-16T07:56:23.062Z,70.20
2023-03-16T07:58:52.627Z,70.80
2023-03-16T08:01:20.652Z,70.30
2023-03-16T08:03:49.492Z,67.00
2023-03-16T08:06:17.385Z,64.40
2023-03-16T08:08:45.032Z,62.00
2023-03-16T08:11:15.589Z,59.10
2023-03-16T08:13:45.199Z,58.30
2023-03-16T08:16:13.925Z,59.00
2023-03-16T08:18:43.715Z,58.00
2023-03-16T08:21:11.657Z,57.70
2023-03-16T08:23:40.004Z,58.00
2023-03-16T08:26:10.224Z,57.20
2023-03-16T08:28:38.272Z,56.10
2023-03-16T08:31:09.096Z,54.30
2023-03-16T08:33:39.074Z,54.20
2023-03-16T08:36:09.302Z,54.00
2023-03-16T08:38:36.851Z,54.60
2023-03-16T08:41:07.206Z,55.00
2023-03-16T08:43:37.918Z,51.10
2023-03-16T08:46:05.968Z,51.00
2023-03-16T08:48:35.356Z,51.60
2023-03-16T08:51:04.574Z,52.10
2023-03-16T08:53:33.244Z,52.40
2023-03-16T08:56:06.783Z,50.90
2023-03-16T08:58:36.727Z,50.20
2023-03-16T09:01:06.212Z,49.80
2023-03-16T09:03:35.448Z,50.90
2023-03-16T09:06:06.024Z,50.60
2023-03-16T09:08:33.974Z,47.60
2023-03-16T09:11:04.212Z,48.00
2023-03-16T09:13:33.183Z,47.90
2023-03-16T09:16:01.649Z,48.40
2023-03-16T09:18:29.621Z,48.80
2023-03-16T09:21:01.689Z,48.30
2023-03-16T09:23:31.318Z,50.40
2023-03-16T09:26:00.905Z,49.90
2023-03-16T09:28:31.541Z,50.80
2023-03-16T09:31:00.079Z,51.70
2023-03-16T09:33:32.237Z,50.90
2023-03-16T09:36:01.332Z,49.70
2023-03-16T09:38:29.667Z,50.10
2023-03-16T09:41:03.334Z,50.40
2023-03-16T09:43:46.552Z,50.10
2023-03-16T09:46:27.461Z,49.30
2023-03-16T09:48:57.730Z,50.00
2023-03-16T09:52:03.483Z,50.20
2023-03-16T09:54:42.570Z,50.60
2023-03-16T09:57:29.114Z,51.80
2023-03-16T10:00:03.289Z,49.10
2023-03-16T10:02:42.110Z,47.40
2023-03-16T10:05:13.441Z,47.20
2023-03-16T10:07:53.658Z,48.50
2023-03-16T10:10:41.743Z,49.80
2023-03-16T10:13:25.434Z,50.40
2023-03-16T10:15:54.361Z,50.20
2023-03-16T10:18:25.895Z,50.50
2023-03-16T10:20:55.397Z,49.20
2023-03-16T10:23:25.936Z,49.10
2023-03-16T10:25:55.789Z,49.80
2023-03-16T10:28:26.886Z,48.90
2023-03-16T10:31:00.546Z,49.10
2023-03-16T10:33:30.547Z,50.00
2023-03-16T10:36:06.070Z,50.30
2023-03-16T10:38:51.366Z,51.00
2023-03-16T10:41:26.314Z,51.00
2023-03-16T10:44:08.998Z,51.20
2023-03-16T10:46:40.640Z,50.60
2023-03-16T10:49:12.596Z,51.20
2023-03-16T10:51:40.232Z,51.20
2023-03-16T10:54:32.195Z,51.90
2023-03-16T10:57:02.411Z,53.10
2023-03-16T10:59:35.377Z,52.30
2023-03-16T11:02:19.887Z,51.80
2023-03-16T11:04:48.336Z,50.40
2023-03-16T11:07:29.911Z,51.20
2023-03-16T11:09:59.103Z,52.10
2023-03-16T11:15:25.588Z,52.90
2023-03-16T11:17:53.345Z,53.50
2023-03-16T11:20:29.305Z,52.10
2023-03-16T11:22:58.957Z,51.10
2023-03-16T11:25:42.740Z,50.90
2023-03-16T11:28:17.214Z,50.30
2023-03-16T11:31:03.786Z,51.60
2023-03-16T11:33:34.098Z,50.10
2023-03-16T11:36:11.606Z,50.10
2023-03-16T11:38:59.938Z,47.70
2023-03-16T11:41:43.843Z,47.30
2023-03-16T11:44:36.350Z,45.30
2023-03-16T11:47:08.191Z,45.10
2023-03-16T11:50:03.655Z,46.30
2023-03-16T11:52:52.962Z,48.80
2023-03-16T11:55:36.684Z,48.80
2023-03-16T11:58:26.088Z,47.80
2023-03-16T12:01:09.114Z,48.80
2023-03-16T12:03:53.787Z,48.80
2023-03-16T12:06:43.869Z,48.30
2023-03-16T12:09:28.016Z,47.80
2023-03-16T12:12:02.267Z,48.00
2023-03-16T12:14:48.165Z,47.30
2023-03-16T12:17:22.780Z,49.10
2023-03-16T12:19:54.629Z,48.90
2023-03-16T12:22:44.837Z,48.80
2023-03-16T12:25:16.258Z,48.00
2023-03-16T12:27:49.062Z,48.60
2023-03-16T12:30:25.935Z,50.00
2023-03-16T12:33:13.423Z,50.80
2023-03-16T12:36:07.243Z,48.20
2023-03-16T12:38:41.721Z,47.20
2023-03-16T12:41:22.519Z,46.90
2023-03-16T12:44:09.586Z,47.50
2023-03-16T12:46:41.439Z,47.00
2023-03-16T12:49:10.609Z,47.20
2023-03-16T12:51:41.785Z,48.00
2023-03-16T12:54:24.099Z,47.00
2023-03-16T12:56:54.322Z,48.10
2023-03-16T12:59:24.801Z,47.70
2023-03-16T13:01:59.886Z,46.50
2023-03-16T13:04:37.677Z,45.80
2023-03-16T13:07:08.367Z,45.60
2023-03-16T13:09:39.334Z,45.10
2023-03-16T13:12:07.442Z,45.10
2023-03-16T13:14:42.034Z,45.00
2023-03-16T13:17:19.860Z,45.90
2023-03-16T13:20:29.487Z,45.50
2023-03-16T13:22:53.124Z,45.10
2023-03-16T13:25:35.657Z,45.20
2023-03-16T13:28:06.848Z,44.70
2023-03-16T13:30:35.913Z,44.70
2023-03-16T13:33:07.547Z,46.30
2023-03-16T13:35:39.329Z,44.40
2023-03-16T13:38:09.589Z,43.80
2023-03-16T13:40:41.488Z,40.70
2023-03-16T13:43:16.363Z,41.60
2023-03-16T13:45:44.378Z,41.60
2023-03-16T13:48:19.328Z,41.50
2023-03-16T13:50:49.034Z,42.50
2023-03-16T13:53:26.462Z,44.00
2023-03-16T13:55:58.686Z,43.10
2023-03-16T13:58:35.276Z,42.80
2023-03-16T14:01:04.454Z,40.40
2023-03-16T14:03:42.025Z,40.60
2023-03-16T14:06:13.910Z,37.80
2023-03-16T14:08:45.115Z,38.30
2023-03-16T14:11:13.124Z,38.00
2023-03-16T14:13:41.192Z,38.00
2023-03-16T14:16:15.834Z,39.70
2023-03-16T14:18:47.830Z,39.20
2023-03-16T14:21:19.510Z,40.00
2023-03-16T14:23:51.353Z,39.90
2023-03-16T14:26:23.838Z,37.40
2023-03-16T14:29:11.425Z,37.80
2023-03-16T14:31:42.548Z,37.60
2023-03-16T14:34:38.892Z,37.50
2023-03-16T14:37:12.564Z,38.30
2023-03-16T14:39:43.020Z,37.40
2023-03-16T14:42:17.701Z,36.40
2023-03-16T14:44:46.084Z,35.70
2023-03-16T14:47:26.749Z,35.70
2023-03-16T14:49:56.915Z,35.80
2023-03-16T14:52:28.047Z,34.10
2023-03-16T14:54:55.733Z,34.50
2023-03-16T14:57:23.231Z,34.50
2023-03-16T14:59:54.073Z,34.80
2023-03-16T15:02:30.087Z,33.60
2023-03-16T15:04:59.471Z,33.00
2023-03-16T15:07:30.674Z,32.20
2023-03-16T15:10:13.536Z,32.30
2023-03-16T15:12:41.664Z,32.50
2023-03-16T15:15:23.015Z,30.90
2023-03-16T15:17:52.791Z,29.50
2023-03-16T15:20:27.163Z,28.90
2023-03-16T15:22:54.945Z,27.90
2023-03-16T15:25:26.640Z,28.00
2023-03-16T15:27:54.774Z,27.50
2023-03-16T15:30:31.122Z,27.60
2023-03-16T15:32:59.536Z,27.00
2023-03-16T15:35:27.830Z,27.20
2023-03-16T15:37:56.786Z,27.00
2023-03-16T15:40:30.187Z,26.10
2023-03-16T15:42:57.876Z,25.90
2023-03-16T15:45:25.950Z,26.10
2023-03-16T15:47:54.309Z,25.30
2023-03-16T15:50:25.364Z,25.10
2023-03-16T15:52:59.377Z,24.80
2023-03-16T15:55:35.035Z,24.80
2023-03-16T15:58:04.117Z,24.40
2023-03-16T16:00:39.857Z,25.10
2023-03-16T16:03:07.721Z,25.60
2023-03-16T16:05:36.517Z,26.70
2023-03-16T16:08:04.362Z,26.30
2023-03-16T16:10:32.617Z,26.30
2023-03-16T16:13:01.822Z,26.70
2023-03-16T16:15:37.294Z,26.50
2023-03-16T16:18:20.913Z,26.40
2023-03-16T16:20:42.476Z,26.30
2023-03-16T16:23:10.719Z,26.60
2023-03-16T16:25:42.948Z,26.80
2023-03-16T16:28:18.014Z,26.80
2023-03-16T16:30:46.596Z,26.90
2023-03-16T16:33:33.639Z,27.10
2023-03-16T16:36:03.603Z,26.90
2023-03-16T16:38:32.963Z,26.10
2023-03-16T16:41:03.169Z,26.70
2023-03-16T16:43:39.159Z,27.10
2023-03-16T16:46:10.090Z,27.80
2023-03-16T16:48:42.174Z,28.40
2023-03-16T16:51:20.042Z,28.90
2023-03-16T16:53:48.840Z,29.50
2023-03-16T16:56:22.530Z,30.20
2023-03-16T16:58:57.190Z,31.20
2023-03-16T17:01:30.667Z,32.30
2023-03-16T17:03:58.438Z,33.40
2023-03-16T17:06:26.813Z,35.20
2023-03-16T17:08:55.804Z,36.00
2023-03-16T17:11:31.854Z,36.70
2023-03-16T17:14:03.126Z,37.90
2023-03-16T17:16:33.005Z,38.80
2023-03-16T17:19:00.805Z,39.60
2023-03-16T17:21:30.230Z,40.20
2023-03-16T17:23:58.774Z,40.80
2023-03-16T17:26:33.151Z,41.20
2023-03-16T17:29:18.004Z,41.90
2023-03-16T17:31:45.997Z,42.20
2023-03-16T17:34:17.853Z,43.10
2023-03-16T17:36:46.523Z,43.90
2023-03-16T17:39:23.889Z,43.60
2023-03-16T17:42:00.900Z,43.80
2023-03-16T17:44:34.491Z,44.30
2023-03-16T17:47:02.365Z,44.50
2023-03-16T17:49:32.187Z,45.30
2023-03-16T17:52:00.894Z,45.70
2023-03-16T17:54:28.663Z,46.20
2023-03-16T17:56:56.415Z,46.70
2023-03-16T17:59:24.333Z,46.90
2023-03-16T18:01:53.029Z,47.60
2023-03-16T18:04:23.743Z,48.20
2023-03-16T18:06:51.769Z,49.40
2023-03-16T18:09:22.498Z,49.40
2023-03-16T18:11:51.805Z,49.50
2023-03-16T18:14:39.679Z,49.30
2023-03-16T18:17:20.339Z,49.70
2023-03-16T18:19:49.134Z,50.00
2023-03-16T18:22:22.312Z,50.40
2023-03-16T18:24:52.325Z,50.90
2023-03-16T18:27:20.568Z,51.20
2023-03-16T18:29:50.011Z,51.60
2023-03-16T18:32:21.824Z,52.00
2023-03-16T18:34:53.583Z,52.10
2023-03-16T18:37:28.442Z,52.30
2023-03-16T18:39:56.014Z,53.00
2023-03-16T18:42:27.601Z,53.10
2023-03-16T18:44:55.127Z,53.30
2023-03-16T18:47:26.810Z,53.70
2023-03-16T18:49:54.570Z,53.90
2023-03-16T18:52:25.153Z,53.80
2023-03-16T18:54:53.472Z,54.00
2023-03-16T18:57:25.157Z,54.50
2023-03-16T19:00:05.711Z,54.40
2023-03-16T19:02:39.488Z,54.30
2023-03-16T19:05:16.430Z,54.80
2023-03-16T19:07:47.904Z,54.50
2023-03-16T19:10:22.569Z,56.00
2023-03-16T19:12:51.404Z,55.30
2023-03-16T19:15:28.912Z,55.60
2023-03-16T19:17:58.349Z,55.00
2023-03-16T19:20:29.553Z,55.30
2023-03-16T19:23:09.577Z,55.60
2023-03-16T19:25:42.841Z,55.40
2023-03-16T19:28:14.308Z,55.70
2023-03-16T19:30:42.847Z,56.00
2023-03-16T19:33:22.810Z,55.80
2023-03-16T19:35:52.477Z,56.10
2023-03-16T19:38:24.849Z,56.40
2023-03-16T19:40:56.378Z,56.50
2023-03-16T19:43:24.861Z,56.80
2023-03-16T19:45:53.381Z,56.70
2023-03-16T19:48:24.992Z,56.70
2023-03-16T19:50:52.712Z,56.90
2023-03-16T19:53:28.364Z,57.10
2023-03-16T19:55:56.289Z,57.30
2023-03-16T19:58:30.635Z,57.70
2023-03-16T20:01:00.017Z,58.00
2023-03-16T20:03:29.029Z,58.20
2023-03-16T20:05:56.736Z,58.30
2023-03-16T20:08:27.106Z,58.20
2023-03-16T20:10:59.110Z,58.60
2023-03-16T20:13:26.737Z,58.30
2023-03-16T20:15:54.673Z,58.50
2023-03-16T20:18:22.476Z,58.60
2023-03-16T20:20:50.466Z,58.70
2023-03-16T20:23:26.743Z,59.00
2023-03-16T20:25:56.600Z,59.40
2023-03-16T20:28:27.826Z,59.10
2023-03-16T20:30:55.392Z,59.30
2023-03-16T20:33:25.544Z,59.80
2023-03-16T20:35:55.657Z,59.90
2023-03-16T20:38:23.722Z,59.80
2023-03-16T20:40:54.290Z,59.70
2023-03-16T20:43:29.964Z,59.70
2023-03-16T20:46:01.225Z,59.80
2023-03-16T20:48:29.870Z,59.80
2023-03-16T20:51:17.850Z,59.70
2023-03-16T20:53:47.301Z,59.60
2023-03-16T20:56:20.882Z,59.80
2023-03-16T20:58:50.825Z,60.00
2023-03-16T21:01:21.675Z,60.60
2023-03-16T21:03:56.339Z,61.00
2023-03-16T21:06:27.370Z,61.70
2023-03-16T21:08:57.628Z,63.40
2023-03-16T21:11:32.332Z,60.90
2023-03-16T21:14:00.212Z,60.30
2023-03-16T21:16:29.775Z,60.70
2023-03-16T21:18:57.843Z,60.90
2023-03-16T21:21:25.654Z,61.30
2023-03-16T21:23:54.070Z,61.90
2023-03-16T21:26:24.412Z,60.70
2023-03-16T21:28:56.939Z,61.20
2023-03-16T21:31:25.899Z,61.80
2023-03-16T21:33:55.181Z,61.40
2023-03-16T21:36:26.585Z,61.50
2023-03-16T21:38:55.818Z,61.20
2023-03-16T21:41:25.093Z,61.20
2023-03-16T21:43:54.699Z,61.20
2023-03-16T21:46:24.626Z,61.30
2023-03-16T21:48:55.263Z,61.40
2023-03-16T21:51:26.009Z,61.50
2023-03-16T21:53:54.479Z,61.50
2023-03-16T21:56:23.896Z,61.90
2023-03-16T21:58:53.325Z,61.80
2023-03-16T22:01:24.929Z,61.90
2023-03-16T22:03:56.148Z,62.40
2023-03-16T22:06:25.920Z,63.20
2023-03-16T22:08:54.586Z,62.70
2023-03-16T22:11:24.694Z,63.00
2023-03-16T22:13:53.092Z,63.30
2023-03-16T22:16:23.396Z,63.20
2023-03-16T22:18:56.385Z,63.10
2023-03-16T22:21:42.356Z,63.20
2023-03-16T22:24:23.866Z,63.30
2023-03-16T22:26:52.315Z,63.40
2023-03-16T22:29:29.564Z,63.00
2023-03-16T22:32:04.695Z,63.00
2023-03-16T22:34:36.238Z,62.90
2023-03-16T22:37:13.785Z,63.40
2023-03-16T22:39:43.946Z,64.60
2023-03-16T22:42:30.727Z,64.30
2023-03-16T22:44:58.262Z,63.80
2023-03-16T22:47:31.510Z,62.60
2023-03-16T22:50:00.790Z,62.90
2023-03-16T22:52:31.139Z,63.00
2023-03-16T22:55:01.609Z,62.50
2023-03-16T22:57:30.148Z,62.60
2023-03-16T22:59:59.073Z,62.80
2023-03-16T23:02:30.758Z,63.60
2023-03-16T23:04:59.556Z,63.60
2023-03-16T23:07:27.716Z,63.50
2023-03-16T23:09:55.927Z,63.60
2023-03-16T23:12:23.224Z,63.40
2023-03-16T23:14:50.660Z,63.00
2023-03-16T23:17:20.372Z,62.40
2023-03-16T23:19:49.269Z,62.30
2023-03-16T23:22:17.375Z,62.50
2023-03-16T23:24:45.066Z,62.50
2023-03-16T23:27:21.791Z,63.20
2023-03-16T23:29:52.658Z,63.40
2023-03-16T23:32:20.309Z,63.80
2023-03-16T23:34:48.221Z,64.30
2023-03-16T23:37:16.326Z,64.40
2023-03-16T23:39:43.897Z,64.70
2023-03-16T23:42:11.758Z,64.80
2023-03-16T23:44:39.835Z,64.80
2023-03-16T23:47:11.924Z,63.90
2023-03-16T23:49:42.682Z,64.30
2023-03-16T23:52:12.411Z,64.20
2023-03-16T23:54:40.573Z,64.90
2023-03-16T23:57:09.421Z,65.20
2023-03-16T23:59:36.894Z,65.20
